createdAt,value
2022-12-24T00:00:51.030Z,976.985
2022-12-24T00:02:50.447Z,977.027
2022-12-24T00:05:01.605Z,977.068
2022-12-24T00:06:50.557Z,977.069
2022-12-24T00:08:50.183Z,977.091
2022-12-24T00:10:50.785Z,977.150
2022-12-24T00:12:50.404Z,977.151
2022-12-24T00:14:50.239Z,977.125
2022-12-24T00:16:50.470Z,977.138
2022-12-24T00:18:50.441Z,977.161
2022-12-24T00:20:50.059Z,977.182
2022-12-24T00:22:50.670Z,977.266
2022-12-24T00:24:50.275Z,977.264
2022-12-24T00:26:50.338Z,977.264
2022-12-24T00:28:50.116Z,977.232
2022-12-24T00:30:50.253Z,977.234
2022-12-24T00:32:50.159Z,977.311
2022-12-24T00:34:50.379Z,977.358
2022-12-24T00:36:50.580Z,977.346
2022-12-24T00:38:50.241Z,977.332
2022-12-24T00:40:50.831Z,977.305
2022-12-24T00:42:50.424Z,977.353
2022-12-24T00:44:50.075Z,977.369
2022-12-24T00:46:50.265Z,977.370
2022-12-24T00:48:49.855Z,977.346
2022-12-24T00:50:50.674Z,977.291
2022-12-24T00:52:50.502Z,977.311
2022-12-24T00:54:50.361Z,977.366
2022-12-24T00:56:50.365Z,977.383
2022-12-24T00:58:50.015Z,977.442
2022-12-24T01:00:50.750Z,977.426
2022-12-24T01:02:51.023Z,977.427
2022-12-24T01:04:50.030Z,977.440
2022-12-24T01:06:49.998Z,977.482
2022-12-24T01:08:50.598Z,977.539
2022-12-24T01:10:50.232Z,977.556
2022-12-24T01:12:49.835Z,977.604
2022-12-24T01:14:50.487Z,977.604
2022-12-24T01:16:50.703Z,977.658
2022-12-24T01:18:50.446Z,977.680
2022-12-24T01:20:50.095Z,977.730
2022-12-24T01:22:50.698Z,977.761
2022-12-24T01:24:50.741Z,977.848
2022-12-24T01:26:50.738Z,977.870
2022-12-24T01:28:50.382Z,977.864
2022-12-24T01:30:50.276Z,977.898
2022-12-24T01:32:50.184Z,977.913
2022-12-24T01:34:50.056Z,977.971
2022-12-24T01:36:50.195Z,977.921
2022-12-24T01:38:50.046Z,977.942
2022-12-24T01:40:49.881Z,977.946
2022-12-24T01:42:49.851Z,977.996
2022-12-24T01:44:50.662Z,978.010
2022-12-24T01:46:51.087Z,978.029
2022-12-24T01:48:50.750Z,978.065
2022-12-24T01:50:50.291Z,978.103
2022-12-24T01:52:49.962Z,978.183
2022-12-24T01:54:50.724Z,978.212
2022-12-24T01:56:51.003Z,978.222
2022-12-24T01:58:49.999Z,978.269
2022-12-24T02:00:50.795Z,978.302
2022-12-24T02:02:51.002Z,978.317
2022-12-24T02:04:50.632Z,978.310
2022-12-24T02:06:50.644Z,978.337
2022-12-24T02:08:50.208Z,978.367
2022-12-24T02:10:49.864Z,978.421
2022-12-24T02:12:50.472Z,978.462
2022-12-24T02:14:50.121Z,978.481
2022-12-24T02:16:50.156Z,978.507
2022-12-24T02:18:50.691Z,978.529
2022-12-24T02:20:50.558Z,978.516
2022-12-24T02:22:50.173Z,978.526
2022-12-24T02:24:49.976Z,978.563
2022-12-24T02:26:50.157Z,978.618
2022-12-24T02:28:50.784Z,978.684
2022-12-24T02:30:50.515Z,978.728
2022-12-24T02:32:50.167Z,978.764
2022-12-24T02:34:50.099Z,978.784
2022-12-24T02:36:50.026Z,978.782
2022-12-24T02:38:50.667Z,978.806
2022-12-24T02:40:50.342Z,978.843
2022-12-24T02:42:50.063Z,978.900
2022-12-24T02:44:50.693Z,978.896
2022-12-24T02:46:51.273Z,978.920
2022-12-24T02:48:50.041Z,978.955
2022-12-24T02:50:50.753Z,978.976
2022-12-24T02:52:50.376Z,978.989
2022-12-24T02:54:49.963Z,978.994
2022-12-24T02:56:49.978Z,979.001
2022-12-24T02:58:50.619Z,979.000
2022-12-24T03:00:50.415Z,979.024
2022-12-24T03:02:50.600Z,979.044
2022-12-24T03:04:49.912Z,979.101
2022-12-24T03:06:49.843Z,979.137
2022-12-24T03:08:49.892Z,979.161
2022-12-24T03:10:50.480Z,979.191
2022-12-24T03:12:50.093Z,979.216
2022-12-24T03:14:50.711Z,979.231
2022-12-24T03:16:50.143Z,979.254
2022-12-24T03:18:50.163Z,979.269
2022-12-24T03:20:50.736Z,979.274
2022-12-24T03:22:50.574Z,979.294
2022-12-24T03:24:50.148Z,979.289
2022-12-24T03:26:49.983Z,979.294
2022-12-24T03:28:50.621Z,979.315
2022-12-24T03:30:50.268Z,979.323
2022-12-24T03:32:50.801Z,979.254
2022-12-24T03:34:50.092Z,979.258
2022-12-24T03:36:50.294Z,979.288
2022-12-24T03:38:50.121Z,979.334
2022-12-24T03:40:50.776Z,979.390
2022-12-24T03:42:50.525Z,979.436
2022-12-24T03:44:50.137Z,979.473
2022-12-24T03:46:49.952Z,979.461
2022-12-24T03:48:50.545Z,979.490
2022-12-24T03:50:50.197Z,979.555
2022-12-24T03:52:50.696Z,979.639
2022-12-24T03:54:50.416Z,979.678
2022-12-24T03:56:50.443Z,979.740
2022-12-24T03:58:50.286Z,979.809
2022-12-24T04:00:50.061Z,979.884
2022-12-24T04:02:50.180Z,979.929
2022-12-24T04:04:49.927Z,979.913
2022-12-24T04:06:49.869Z,979.906
2022-12-24T04:08:50.545Z,979.878
2022-12-24T04:10:50.141Z,979.863
2022-12-24T04:12:49.984Z,979.861
2022-12-24T04:14:50.641Z,979.908
2022-12-24T04:16:51.023Z,979.954
2022-12-24T04:18:49.978Z,979.996
2022-12-24T04:20:50.586Z,980.043
2022-12-24T04:22:50.205Z,980.027
2022-12-24T04:24:50.858Z,980.037
2022-12-24T04:26:49.824Z,980.046
2022-12-24T04:28:50.415Z,980.062
2022-12-24T04:30:50.037Z,980.077
2022-12-24T04:32:50.465Z,980.107
2022-12-24T04:34:50.507Z,980.125
2022-12-24T04:36:50.335Z,980.184
2022-12-24T04:38:50.119Z,980.210
2022-12-24T04:40:49.965Z,980.212
2022-12-24T04:42:50.523Z,980.256
2022-12-24T04:44:50.193Z,980.269
2022-12-24T04:46:50.235Z,980.245
2022-12-24T04:48:49.995Z,980.208
2022-12-24T04:50:50.465Z,980.202
2022-12-24T04:52:50.055Z,980.182
2022-12-24T04:54:49.875Z,980.186
2022-12-24T04:56:49.846Z,980.207
2022-12-24T04:58:50.522Z,980.187
2022-12-24T05:00:50.567Z,980.226
2022-12-24T05:02:50.753Z,980.257
2022-12-24T05:04:50.545Z,980.240
2022-12-24T05:06:50.524Z,980.240
2022-12-24T05:08:50.419Z,980.293
2022-12-24T05:10:50.158Z,980.325
2022-12-24T05:12:49.985Z,980.347
2022-12-24T05:14:50.595Z,980.386
2022-12-24T05:16:50.755Z,980.429
2022-12-24T05:18:50.816Z,980.455
2022-12-24T05:20:50.621Z,980.455
2022-12-24T05:22:50.506Z,980.442
2022-12-24T05:24:50.059Z,980.429
2022-12-24T05:26:50.134Z,980.501
2022-12-24T05:28:50.730Z,980.516
2022-12-24T05:30:50.310Z,980.523
2022-12-24T05:32:50.159Z,980.534
2022-12-24T05:34:50.392Z,980.534
2022-12-24T05:36:50.623Z,980.548
2022-12-24T05:38:50.403Z,980.566
2022-12-24T05:40:50.237Z,980.593
2022-12-24T05:42:49.992Z,980.622
2022-12-24T05:44:50.819Z,980.670
2022-12-24T05:46:50.599Z,980.733
2022-12-24T05:48:50.243Z,980.733
2022-12-24T05:50:49.925Z,980.771
2022-12-24T05:52:50.658Z,980.761
2022-12-24T05:54:50.254Z,980.746
2022-12-24T05:56:50.315Z,980.770
2022-12-24T05:58:50.135Z,980.789
2022-12-24T06:00:49.972Z,980.816
2022-12-24T06:02:50.899Z,980.818
2022-12-24T06:04:50.308Z,980.830
2022-12-24T06:06:50.381Z,980.846
2022-12-24T06:08:50.048Z,980.891
2022-12-24T06:10:50.799Z,980.879
2022-12-24T06:12:50.597Z,980.889
2022-12-24T06:14:50.228Z,980.867
2022-12-24T06:16:50.275Z,980.848
2022-12-24T06:18:49.860Z,980.853
2022-12-24T06:20:50.473Z,980.863
2022-12-24T06:22:50.303Z,980.870
2022-12-24T06:24:49.904Z,980.887
2022-12-24T06:26:49.927Z,980.930
2022-12-24T06:28:50.763Z,980.957
2022-12-24T06:30:50.687Z,980.955
2022-12-24T06:32:50.349Z,980.925
2022-12-24T06:34:50.576Z,980.910
2022-12-24T06:36:49.913Z,980.927
2022-12-24T06:38:50.578Z,980.996
2022-12-24T06:40:50.201Z,981.053
2022-12-24T06:42:50.834Z,981.079
2022-12-24T06:44:50.444Z,981.054
2022-12-24T06:46:50.466Z,981.072
2022-12-24T06:48:50.515Z,981.070
2022-12-24T06:50:50.071Z,981.081
2022-12-24T06:52:50.698Z,981.094
2022-12-24T06:54:50.314Z,981.175
2022-12-24T06:56:50.446Z,981.173
2022-12-24T06:58:50.057Z,981.222
2022-12-24T07:00:50.635Z,981.222
2022-12-24T07:02:50.606Z,981.280
2022-12-24T07:04:50.128Z,981.248
2022-12-24T07:06:50.346Z,981.290
2022-12-24T07:08:49.923Z,981.300
2022-12-24T07:10:55.003Z,981.302
2022-12-24T07:12:50.758Z,981.317
2022-12-24T07:14:50.445Z,981.352
2022-12-24T07:16:59.749Z,981.459
2022-12-24T07:18:50.687Z,981.520
2022-12-24T07:20:50.457Z,981.520
2022-12-24T07:22:50.242Z,981.547
2022-12-24T07:24:49.866Z,981.558
2022-12-24T07:26:50.105Z,981.601
2022-12-24T07:28:49.865Z,981.631
2022-12-24T07:30:50.670Z,981.610
2022-12-24T07:32:50.309Z,981.634
2022-12-24T07:34:50.330Z,981.640
2022-12-24T07:36:50.524Z,981.619
2022-12-24T07:38:50.383Z,981.621
2022-12-24T07:40:49.937Z,981.632
2022-12-24T07:42:50.439Z,981.651
2022-12-24T07:44:50.190Z,981.663
2022-12-24T07:46:50.407Z,981.704
2022-12-24T07:48:50.231Z,981.745
2022-12-24T07:50:50.836Z,981.742
2022-12-24T07:52:50.636Z,981.713
2022-12-24T07:54:50.289Z,981.690
2022-12-24T07:56:50.296Z,981.706
2022-12-24T07:58:50.065Z,981.725
2022-12-24T08:00:49.915Z,981.739
2022-12-24T08:02:51.347Z,981.739
2022-12-24T08:04:50.321Z,981.739
2022-12-24T08:06:50.358Z,981.799
2022-12-24T08:08:50.035Z,981.793
2022-12-24T08:10:50.910Z,981.823
2022-12-24T08:12:50.480Z,981.818
2022-12-24T08:14:50.216Z,981.844
2022-12-24T08:16:50.506Z,981.897
2022-12-24T08:18:50.431Z,981.939
2022-12-24T08:20:50.045Z,981.936
2022-12-24T08:22:50.613Z,981.965
2022-12-24T08:24:50.290Z,981.966
2022-12-24T08:26:50.337Z,982.014
2022-12-24T08:28:49.904Z,982.029
2022-12-24T08:30:50.704Z,982.038
2022-12-24T08:32:50.332Z,982.063
2022-12-24T08:34:50.580Z,982.080
2022-12-24T08:36:50.579Z,982.058
2022-12-24T08:38:50.401Z,982.083
2022-12-24T08:40:50.624Z,982.099
2022-12-24T08:42:50.768Z,982.116
2022-12-24T08:44:50.796Z,982.102
2022-12-24T08:46:50.632Z,982.157
2022-12-24T08:48:50.259Z,982.173
2022-12-24T08:50:49.848Z,982.166
2022-12-24T08:52:50.480Z,982.214
2022-12-24T08:54:50.314Z,982.258
2022-12-24T08:56:50.331Z,982.281
2022-12-24T08:58:49.917Z,982.389
2022-12-24T09:00:50.730Z,982.457
2022-12-24T09:02:50.802Z,982.443
2022-12-24T09:04:50.382Z,982.461
2022-12-24T09:06:50.369Z,982.478
2022-12-24T09:08:49.992Z,982.454
2022-12-24T09:10:50.816Z,982.517
2022-12-24T09:12:50.447Z,982.554
2022-12-24T09:14:50.264Z,982.546
2022-12-24T09:16:50.414Z,982.560
2022-12-24T09:18:50.281Z,982.584
2022-12-24T09:20:57.706Z,982.574
2022-12-24T09:22:50.504Z,982.606
2022-12-24T09:24:50.135Z,982.645
2022-12-24T09:26:58.351Z,982.683
2022-12-24T09:28:50.142Z,982.693
2022-12-24T09:30:50.717Z,982.750
2022-12-24T09:32:50.343Z,982.762
2022-12-24T09:34:50.427Z,982.824
2022-12-24T09:36:50.181Z,982.846
2022-12-24T09:38:49.984Z,982.898
2022-12-24T09:40:50.897Z,982.953
2022-12-24T09:42:50.624Z,982.938
2022-12-24T09:44:50.247Z,982.919
2022-12-24T09:46:50.074Z,982.921
2022-12-24T09:48:50.705Z,982.890
2022-12-24T09:50:50.345Z,982.900
2022-12-24T09:52:50.108Z,982.873
2022-12-24T09:54:50.550Z,982.858
2022-12-24T09:56:50.584Z,982.848
2022-12-24T09:58:50.357Z,982.848
2022-12-24T10:00:50.816Z,982.889
2022-12-24T10:02:50.961Z,982.913
2022-12-24T10:04:50.631Z,982.926
2022-12-24T10:06:49.843Z,982.895
2022-12-24T10:08:50.675Z,982.897
2022-12-24T10:10:50.489Z,982.909
2022-12-24T10:12:50.565Z,982.892
2022-12-24T10:14:50.509Z,982.917
2022-12-24T10:16:50.979Z,982.908
2022-12-24T10:18:50.122Z,982.884
2022-12-24T10:20:50.715Z,982.939
2022-12-24T10:22:50.366Z,982.966
2022-12-24T10:24:51.260Z,982.971
2022-12-24T10:26:50.172Z,982.986
2022-12-24T10:28:49.955Z,982.979
2022-12-24T10:30:50.920Z,982.991
2022-12-24T10:32:50.845Z,982.992
2022-12-24T10:34:50.027Z,983.006
2022-12-24T10:36:50.031Z,983.027
2022-12-24T10:38:50.650Z,983.076
2022-12-24T10:40:50.400Z,983.094
2022-12-24T10:42:52.205Z,983.091
2022-12-24T10:44:49.965Z,983.081
2022-12-24T10:46:50.100Z,983.121
2022-12-24T10:48:51.401Z,983.170
2022-12-24T10:50:49.949Z,983.196
2022-12-24T10:52:50.738Z,983.195
2022-12-24T10:54:50.336Z,983.225
2022-12-24T10:56:50.368Z,983.275
2022-12-24T10:58:50.027Z,983.288
2022-12-24T11:00:50.805Z,983.317
2022-12-24T11:02:51.275Z,983.330
2022-12-24T11:04:50.320Z,983.348
2022-12-24T11:06:50.219Z,983.371
2022-12-24T11:08:49.854Z,983.363
2022-12-24T11:10:50.659Z,983.382
2022-12-24T11:13:36.697Z,983.441
2022-12-24T11:14:50.686Z,983.463
2022-12-24T11:16:49.920Z,983.449
2022-12-24T11:18:52.787Z,983.463
2022-12-24T11:20:50.338Z,983.414
2022-12-24T11:22:49.982Z,983.421
2022-12-24T11:24:50.877Z,983.373
2022-12-24T11:26:50.806Z,983.294
2022-12-24T11:28:50.442Z,983.233
2022-12-24T11:30:50.186Z,983.214
2022-12-24T11:32:50.034Z,983.260
2022-12-24T11:34:50.275Z,983.285
2022-12-24T11:36:50.338Z,983.280
2022-12-24T11:38:50.082Z,983.308
2022-12-24T11:40:49.963Z,983.288
2022-12-24T11:42:50.705Z,983.285
2022-12-24T11:44:50.306Z,983.304
2022-12-24T11:46:50.249Z,983.296
2022-12-24T11:48:50.137Z,983.255
2022-12-24T11:50:50.866Z,983.224
2022-12-24T11:52:50.572Z,983.192
2022-12-24T11:54:50.310Z,983.153
2022-12-24T11:56:50.216Z,983.139
2022-12-24T11:58:49.859Z,983.171
2022-12-24T12:00:50.451Z,983.178
2022-12-24T12:02:50.342Z,983.182
2022-12-24T12:04:50.673Z,983.194
2022-12-24T12:06:50.471Z,983.218
2022-12-24T12:08:50.103Z,983.218
2022-12-24T12:10:49.932Z,983.270
2022-12-24T12:12:50.518Z,983.280
2022-12-24T12:14:50.382Z,983.293
2022-12-24T12:16:50.577Z,983.276
2022-12-24T12:18:50.193Z,983.268
2022-12-24T12:20:50.865Z,983.250
2022-12-24T12:22:50.658Z,983.221
2022-12-24T12:24:50.531Z,983.212
2022-12-24T12:26:50.637Z,983.242
2022-12-24T12:28:50.441Z,983.265
2022-12-24T12:30:50.243Z,983.265
2022-12-24T12:32:50.256Z,983.250
2022-12-24T12:34:49.939Z,983.302
2022-12-24T12:36:50.104Z,983.302
2022-12-24T12:38:49.918Z,983.364
2022-12-24T12:40:50.531Z,983.379
2022-12-24T12:42:50.124Z,983.369
2022-12-24T12:44:50.814Z,983.362
2022-12-24T12:46:51.083Z,983.364
2022-12-24T12:48:50.204Z,983.376
2022-12-24T12:50:50.179Z,983.396
2022-12-24T12:52:50.035Z,983.419
2022-12-24T12:54:49.822Z,983.419
2022-12-24T12:56:49.843Z,983.390
2022-12-24T12:58:50.454Z,983.380
2022-12-24T13:00:50.213Z,983.405
2022-12-24T13:02:50.471Z,983.432
2022-12-24T13:04:50.111Z,983.434
2022-12-24T13:06:49.918Z,983.443
2022-12-24T13:08:50.534Z,983.431
2022-12-24T13:10:50.163Z,983.406
2022-12-24T13:12:49.975Z,983.406
2022-12-24T13:14:50.620Z,983.445
2022-12-24T13:16:51.027Z,983.448
2022-12-24T13:18:50.195Z,983.469
2022-12-24T13:20:50.867Z,983.485
2022-12-24T13:22:50.481Z,983.496
2022-12-24T13:24:52.851Z,983.478
2022-12-24T13:26:49.897Z,983.496
2022-12-24T13:28:50.649Z,983.552
2022-12-24T13:30:50.347Z,983.557
2022-12-24T13:32:50.095Z,983.521
2022-12-24T13:34:51.147Z,983.533
2022-12-24T13:36:50.122Z,983.554
2022-12-24T13:38:50.793Z,983.535
2022-12-24T13:40:50.361Z,983.521
2022-12-24T13:42:50.015Z,983.486
2022-12-24T13:44:50.792Z,983.512
2022-12-24T13:46:50.806Z,983.538
2022-12-24T13:48:50.631Z,983.583
2022-12-24T13:50:50.275Z,983.594
2022-12-24T13:52:50.069Z,983.609
2022-12-24T13:54:50.715Z,983.564
2022-12-24T13:56:50.695Z,983.590
2022-12-24T13:58:50.528Z,983.622
2022-12-24T14:00:50.497Z,983.648
2022-12-24T14:02:50.786Z,983.683
2022-12-24T14:04:50.556Z,983.672
2022-12-24T14:06:50.779Z,983.712
2022-12-24T14:08:50.386Z,983.726
2022-12-24T14:10:50.212Z,983.729
2022-12-24T14:12:50.777Z,983.741
2022-12-24T14:14:50.444Z,983.706
2022-12-24T14:16:51.104Z,983.684
2022-12-24T14:18:50.253Z,983.670
2022-12-24T14:20:50.064Z,983.767
2022-12-24T14:22:50.640Z,983.783
2022-12-24T14:24:50.303Z,983.775
2022-12-24T14:26:50.306Z,983.784
2022-12-24T14:28:50.000Z,983.802
2022-12-24T14:30:50.553Z,983.820
2022-12-24T14:32:50.401Z,983.819
2022-12-24T14:34:50.587Z,983.801
2022-12-24T14:36:50.573Z,983.800
2022-12-24T14:38:50.390Z,983.801
2022-12-24T14:40:50.016Z,983.799
2022-12-24T14:42:50.808Z,983.827
2022-12-24T14:44:50.636Z,983.861
2022-12-24T14:46:50.696Z,983.910
2022-12-24T14:48:50.431Z,983.960
2022-12-24T14:50:50.089Z,983.991
2022-12-24T14:53:10.491Z,984.001
2022-12-24T14:54:50.142Z,984.033
2022-12-24T14:56:50.106Z,984.030
2022-12-24T14:58:50.797Z,984.051
2022-12-24T15:00:50.770Z,984.050
2022-12-24T15:02:51.128Z,984.051
2022-12-24T15:04:50.843Z,984.056
2022-12-24T15:06:50.769Z,984.064
2022-12-24T15:08:50.652Z,984.078
2022-12-24T15:10:50.518Z,984.099
2022-12-24T15:12:50.297Z,984.087
2022-12-24T15:14:50.210Z,984.122
2022-12-24T15:16:50.489Z,984.138
2022-12-24T15:18:50.608Z,984.162
2022-12-24T15:20:50.567Z,984.165
2022-12-24T15:22:50.353Z,984.189
2022-12-24T15:24:50.128Z,984.191
2022-12-24T15:26:50.169Z,984.192
2022-12-24T15:28:49.979Z,984.207
2022-12-24T15:30:50.034Z,984.228
2022-12-24T15:32:50.825Z,984.232
2022-12-24T15:34:50.009Z,984.283
2022-12-24T15:36:50.228Z,984.301
2022-12-24T15:38:50.814Z,984.282
2022-12-24T15:40:50.664Z,984.315
2022-12-24T15:42:50.477Z,984.311
2022-12-24T15:44:50.282Z,984.341
2022-12-24T15:46:50.403Z,984.381
2022-12-24T15:48:50.333Z,984.409
2022-12-24T15:50:50.015Z,984.450
2022-12-24T15:53:19.026Z,984.467
2022-12-24T15:54:58.679Z,984.454
2022-12-24T15:56:50.771Z,984.454
2022-12-24T15:58:50.359Z,984.416
2022-12-24T16:00:50.178Z,984.414
2022-12-24T16:02:50.835Z,984.435
2022-12-24T16:04:50.640Z,984.478
2022-12-24T16:06:50.637Z,984.516
2022-12-24T16:08:50.472Z,984.547
2022-12-24T16:10:50.281Z,984.573
2022-12-24T16:12:50.135Z,984.598
2022-12-24T16:14:50.770Z,984.635
2022-12-24T16:16:50.791Z,984.682
2022-12-24T16:18:50.560Z,984.715
2022-12-24T16:20:50.123Z,984.693
2022-12-24T16:22:50.731Z,984.689
2022-12-24T16:24:50.537Z,984.687
2022-12-24T16:26:50.407Z,984.730
2022-12-24T16:28:50.387Z,984.756
2022-12-24T16:30:50.368Z,984.760
2022-12-24T16:32:50.426Z,984.739
2022-12-24T16:34:50.624Z,984.763
2022-12-24T16:36:50.463Z,984.793
2022-12-24T16:38:50.064Z,984.811
2022-12-24T16:40:49.939Z,984.849
2022-12-24T16:42:50.544Z,984.881
2022-12-24T16:44:50.344Z,984.935
2022-12-24T16:46:50.716Z,984.971
2022-12-24T16:48:50.811Z,985.008
2022-12-24T16:50:50.550Z,985.013
2022-12-24T16:52:50.386Z,985.013
2022-12-24T16:54:50.328Z,985.013
2022-12-24T16:56:50.426Z,985.041
2022-12-24T16:58:50.211Z,985.080
2022-12-24T17:00:50.825Z,985.078
2022-12-24T17:02:51.222Z,985.085
2022-12-24T17:04:49.853Z,985.105
2022-12-24T17:06:50.060Z,985.111
2022-12-24T17:08:49.888Z,985.138
2022-12-24T17:10:50.505Z,985.134
2022-12-24T17:12:50.334Z,985.141
2022-12-24T17:14:49.937Z,985.141
2022-12-24T17:16:49.944Z,985.108
2022-12-24T17:18:50.672Z,985.064
2022-12-24T17:20:50.564Z,985.066
2022-12-24T17:22:50.389Z,985.084
2022-12-24T17:24:50.195Z,985.082
2022-12-24T17:26:50.426Z,985.077
2022-12-24T17:28:50.253Z,985.059
2022-12-24T17:30:50.068Z,985.079
2022-12-24T17:32:50.070Z,985.097
2022-12-24T17:34:50.275Z,985.113
2022-12-24T17:36:50.125Z,985.135
2022-12-24T17:38:49.882Z,985.148
2022-12-24T17:40:50.707Z,985.154
2022-12-24T17:42:50.552Z,985.167
2022-12-24T17:44:50.370Z,985.177
2022-12-24T17:46:50.724Z,985.243
2022-12-24T17:48:50.791Z,985.297
2022-12-24T17:50:50.756Z,985.297
2022-12-24T17:52:50.839Z,985.255
2022-12-24T17:54:50.641Z,985.223
2022-12-24T17:56:50.055Z,985.198
2022-12-24T17:58:50.757Z,985.194
2022-12-24T18:00:50.647Z,985.202
2022-12-24T18:02:50.879Z,985.186
2022-12-24T18:04:50.300Z,985.153
2022-12-24T18:06:57.736Z,985.153
2022-12-24T18:08:50.334Z,985.167
2022-12-24T18:10:50.224Z,985.167
2022-12-24T18:12:50.251Z,985.199
2022-12-24T18:14:50.192Z,985.258
2022-12-24T18:16:50.671Z,985.285
2022-12-24T18:18:49.990Z,985.297
2022-12-24T18:20:50.867Z,985.332
2022-12-24T18:22:50.738Z,985.372
2022-12-24T18:24:50.618Z,985.388
2022-12-24T18:26:50.661Z,985.413
2022-12-24T18:28:50.465Z,985.412
2022-12-24T18:30:50.084Z,985.421
2022-12-24T18:32:49.884Z,985.411
2022-12-24T18:34:50.333Z,985.440
2022-12-24T18:36:56.042Z,985.443
2022-12-24T18:38:50.770Z,985.437
2022-12-24T18:40:50.754Z,985.421
2022-12-24T18:42:50.349Z,985.440
2022-12-24T18:44:50.202Z,985.484
2022-12-24T18:46:50.319Z,985.546
2022-12-24T18:48:50.244Z,985.573
2022-12-24T18:50:49.868Z,985.632
2022-12-24T18:52:49.820Z,985.662
2022-12-24T18:54:50.456Z,985.703
2022-12-24T18:56:50.677Z,985.709
2022-12-24T18:58:50.490Z,985.685
2022-12-24T19:00:50.722Z,985.685
2022-12-24T19:02:51.111Z,985.718
2022-12-24T19:04:50.733Z,985.737
2022-12-24T19:06:53.925Z,985.733
2022-12-24T19:09:02.093Z,985.672
2022-12-24T19:10:50.574Z,985.624
2022-12-24T19:12:50.157Z,985.586
2022-12-24T19:14:50.802Z,985.536
2022-12-24T19:16:50.237Z,985.466
2022-12-24T19:18:50.061Z,985.433
2022-12-24T19:20:50.058Z,985.385
2022-12-24T19:22:49.939Z,985.388
2022-12-24T19:24:49.877Z,985.394
2022-12-24T19:26:50.729Z,985.377
2022-12-24T19:28:50.597Z,985.360
2022-12-24T19:30:50.329Z,985.312
2022-12-24T19:32:50.111Z,985.312
2022-12-24T19:34:50.355Z,985.385
2022-12-24T19:36:50.545Z,985.410
2022-12-24T19:38:50.548Z,985.471
2022-12-24T19:40:50.385Z,985.506
2022-12-24T19:42:50.128Z,985.539
2022-12-24T19:44:50.820Z,985.593
2022-12-24T19:46:49.819Z,985.629
2022-12-24T19:48:50.444Z,985.631
2022-12-24T19:50:50.078Z,985.627
2022-12-24T19:52:50.976Z,985.616
2022-12-24T19:54:50.736Z,985.624
2022-12-24T19:56:49.903Z,985.680
2022-12-24T19:58:50.526Z,985.706
2022-12-24T20:00:50.277Z,985.715
2022-12-24T20:02:50.560Z,985.755
2022-12-24T20:04:50.347Z,985.806
2022-12-24T20:07:01.060Z,985.843
2022-12-24T20:08:50.611Z,985.866
2022-12-24T20:10:50.188Z,985.874
2022-12-24T20:12:50.036Z,985.888
2022-12-24T20:14:50.688Z,985.881
2022-12-24T20:16:50.908Z,985.870
2022-12-24T20:18:50.673Z,985.856
2022-12-24T20:20:50.292Z,985.867
2022-12-24T20:22:50.063Z,985.907
2022-12-24T20:24:50.800Z,985.925
2022-12-24T20:26:49.939Z,985.954
2022-12-24T20:28:50.590Z,986.016
2022-12-24T20:30:50.393Z,986.074
2022-12-24T20:32:50.230Z,986.110
2022-12-24T20:34:50.697Z,986.114
2022-12-24T20:36:50.601Z,986.126
2022-12-24T20:38:50.184Z,986.144
2022-12-24T20:40:50.021Z,986.174
2022-12-24T20:42:49.864Z,986.215
2022-12-24T20:44:50.672Z,986.238
2022-12-24T20:46:49.874Z,986.276
2022-12-24T20:48:50.461Z,986.294
2022-12-24T20:50:51.841Z,986.324
2022-12-24T20:52:50.493Z,986.324
2022-12-24T20:54:50.676Z,986.312
2022-12-24T20:56:59.287Z,986.315
2022-12-24T20:58:49.992Z,986.319
2022-12-24T21:00:50.910Z,986.331
2022-12-24T21:02:51.195Z,986.336
2022-12-24T21:04:56.597Z,986.331
2022-12-24T21:06:50.400Z,986.307
2022-12-24T21:08:50.312Z,986.311
2022-12-24T21:10:50.021Z,986.316
2022-12-24T21:12:49.852Z,986.316
2022-12-24T21:14:50.662Z,986.276
2022-12-24T21:16:50.257Z,986.247
2022-12-24T21:18:50.334Z,986.185
2022-12-24T21:20:50.107Z,986.168
2022-12-24T21:23:01.419Z,986.136
2022-12-24T21:24:50.801Z,986.136
2022-12-24T21:26:50.613Z,986.134
2022-12-24T21:28:50.460Z,986.103
2022-12-24T21:30:50.526Z,986.096
2022-12-24T21:32:50.627Z,986.068
2022-12-24T21:34:49.837Z,986.065
2022-12-24T21:36:50.891Z,986.066
2022-12-24T21:38:50.690Z,986.068
2022-12-24T21:40:50.505Z,986.039
2022-12-24T21:42:50.289Z,986.016
2022-12-24T21:44:50.310Z,986.024
2022-12-24T21:46:50.308Z,986.090
2022-12-24T21:48:50.111Z,986.138
2022-12-24T21:50:50.720Z,986.151
2022-12-24T21:52:50.522Z,986.121
2022-12-24T21:54:50.146Z,986.103
2022-12-24T21:56:50.375Z,986.109
2022-12-24T21:58:50.005Z,986.118
2022-12-24T22:00:50.861Z,986.111
2022-12-24T22:02:52.100Z,986.147
2022-12-24T22:04:50.078Z,986.142
2022-12-24T22:06:50.235Z,986.142
2022-12-24T22:08:49.857Z,986.134
2022-12-24T22:10:50.518Z,986.146
2022-12-24T22:12:50.297Z,986.133
2022-12-24T22:14:49.907Z,986.106
2022-12-24T22:16:50.175Z,986.092
2022-12-24T22:18:50.124Z,986.094
2022-12-24T22:20:50.733Z,986.117
2022-12-24T22:22:50.355Z,986.125
2022-12-24T22:24:49.976Z,986.115
2022-12-24T22:26:50.011Z,986.103
2022-12-24T22:28:50.585Z,986.133
2022-12-24T22:30:50.347Z,986.170
2022-12-24T22:32:50.249Z,986.197
2022-12-24T22:34:50.276Z,986.193
2022-12-24T22:36:50.495Z,986.135
2022-12-24T22:38:50.297Z,986.134
2022-12-24T22:40:50.090Z,986.146
2022-12-24T22:42:49.908Z,986.149
2022-12-24T22:44:50.746Z,986.167
2022-12-24T22:46:50.719Z,986.192
2022-12-24T22:48:50.556Z,986.192
2022-12-24T22:50:50.220Z,986.180
2022-12-24T22:52:50.763Z,986.205
2022-12-24T22:54:50.362Z,986.203
2022-12-24T22:56:50.419Z,986.184
2022-12-24T22:58:50.007Z,986.171
2022-12-24T23:00:50.624Z,986.140
2022-12-24T23:02:50.648Z,986.111
2022-12-24T23:04:50.285Z,986.096
2022-12-24T23:06:50.307Z,986.130
2022-12-24T23:08:50.106Z,986.142
2022-12-24T23:10:50.743Z,986.150
2022-12-24T23:12:50.554Z,986.100
2022-12-24T23:14:50.141Z,986.103
2022-12-24T23:16:50.138Z,986.148
2022-12-24T23:18:50.742Z,986.154
2022-12-24T23:20:50.367Z,986.148
2022-12-24T23:22:50.192Z,986.147
2022-12-24T23:24:50.802Z,986.147
2022-12-24T23:26:50.844Z,986.220
2022-12-24T23:28:50.646Z,986.242
2022-12-24T23:30:50.407Z,986.263
2022-12-24T23:32:50.485Z,986.289
2022-12-24T23:34:50.685Z,986.289
2022-12-24T23:36:50.734Z,986.295
2022-12-24T23:38:50.493Z,986.284
2022-12-24T23:40:50.338Z,986.252
2022-12-24T23:42:50.135Z,986.232
2022-12-24T23:44:49.958Z,986.181
2022-12-24T23:46:50.108Z,986.169
2022-12-24T23:48:50.179Z,986.176
2022-12-24T23:50:50.006Z,986.208
2022-12-24T23:52:49.997Z,986.241
2022-12-24T23:54:49.904Z,986.273
2022-12-24T23:56:49.812Z,986.291
2022-12-24T23:58:50.713Z,986.289
